Time;durP1;ratioP1;P1;durP2;ratioP2;P2;SDS_P1;SDS_P2;PMS_P1;PMS_P2;Temp;Humidity;BMP_temperature;BMP_pressure;BME280_temperature;BME280_humidity;BME280_pressure;Samples;Min_cycle;Max_cycle;Signal;HPM_P1;HPM_P2
2022/03/05 00:01:57;;;;;;;4.88;2.70;;;20.20;44.30;;;;;;4972317;28;20030;-74
2022/03/05 00:04:23;;;;;;;4.47;2.80;;;20.20;44.30;;;;;;4972320;28;20424;-74
2022/03/05 00:06:49;;;;;;;4.15;2.80;;;20.30;44.40;;;;;;4973368;28;20030;-74
2022/03/05 00:09:17;;;;;;;4.05;2.90;;;20.30;44.40;;;;;;4955807;28;20027;-74
2022/03/05 00:11:43;;;;;;;4.88;2.80;;;20.30;44.30;;;;;;4973275;28;20035;-74
2022/03/05 00:14:10;;;;;;;4.18;2.90;;;20.30;44.30;;;;;;4973522;28;20113;-74
2022/03/05 00:16:36;;;;;;;4.82;2.92;;;20.30;44.30;;;;;;4973251;28;20038;-75
2022/03/05 00:19:02;;;;;;;5.20;2.95;;;20.30;44.40;;;;;;4973151;28;20492;-74
2022/03/05 00:21:28;;;;;;;4.80;3.03;;;20.30;44.40;;;;;;4972202;28;20443;-74
2022/03/05 00:23:54;;;;;;;4.57;2.65;;;20.30;44.40;;;;;;4972879;28;20031;-75
2022/03/05 00:26:19;;;;;;;5.47;3.10;;;20.20;44.30;;;;;;4972109;28;20049;-74
2022/03/05 00:28:45;;;;;;;5.35;2.95;;;20.20;44.30;;;;;;4973083;28;20562;-74
2022/03/05 00:31:11;;;;;;;4.82;2.90;;;20.30;44.40;;;;;;4971038;28;20023;-74
2022/03/05 00:33:37;;;;;;;4.30;2.70;;;20.20;44.40;;;;;;4973014;28;20038;-75
2022/03/05 00:36:03;;;;;;;5.57;2.72;;;20.20;44.40;;;;;;4972234;28;20038;-74
2022/03/05 00:38:29;;;;;;;5.97;3.00;;;20.30;44.40;;;;;;4971683;28;20030;-74
2022/03/05 00:40:54;;;;;;;3.95;2.80;;;20.20;44.40;;;;;;4972229;28;20081;-73
2022/03/05 00:43:20;;;;;;;3.63;2.38;;;20.30;44.50;;;;;;4972671;28;20031;-74
2022/03/05 00:45:46;;;;;;;4.90;2.72;;;20.20;44.40;;;;;;4972567;28;20038;-74
2022/03/05 00:48:12;;;;;;;4.88;2.90;;;20.20;44.40;;;;;;4973302;28;20035;-74
2022/03/05 00:50:39;;;;;;;4.15;2.58;;;20.20;44.40;;;;;;4971954;28;20086;-73
2022/03/05 00:53:05;;;;;;;4.28;2.47;;;20.20;44.40;;;;;;4972601;28;20027;-74
2022/03/05 00:55:31;;;;;;;5.30;2.65;;;20.20;44.30;;;;;;4972093;28;20045;-74
2022/03/05 00:57:59;;;;;;;3.50;2.70;;;20.20;44.30;;;;;;4972626;28;20037;-74
2022/03/05 01:00:25;;;;;;;4.35;2.92;;;20.20;44.40;;;;;;4970467;28;20034;-74
2022/03/05 01:02:51;;;;;;;4.25;2.60;;;20.20;44.40;;;;;;4972501;28;20053;-75
2022/03/05 01:05:17;;;;;;;4.43;2.72;;;20.20;44.30;;;;;;4972519;28;20023;-74
2022/03/05 01:07:43;;;;;;;5.05;2.75;;;20.20;44.40;;;;;;4972320;28;20081;-74
2022/03/05 01:10:09;;;;;;;5.07;2.95;;;20.20;44.40;;;;;;4971788;28;20034;-74
2022/03/05 01:12:35;;;;;;;4.13;2.58;;;20.20;44.40;;;;;;4971268;28;20540;-74
2022/03/05 01:15:02;;;;;;;3.75;2.58;;;20.20;44.40;;;;;;4972705;28;20031;-75
2022/03/05 01:17:28;;;;;;;4.65;2.85;;;20.20;44.50;;;;;;4971322;28;20038;-74
2022/03/05 01:19:54;;;;;;;4.47;2.72;;;20.20;44.30;;;;;;4954487;28;20420;-74
2022/03/05 01:22:20;;;;;;;3.70;2.40;;;20.20;44.40;;;;;;4971009;28;20042;-74
2022/03/05 01:24:45;;;;;;;5.22;2.80;;;20.20;44.40;;;;;;4972395;28;20104;-74
2022/03/05 01:27:11;;;;;;;3.95;2.60;;;20.20;44.40;;;;;;4971072;28;20030;-74
2022/03/05 01:29:37;;;;;;;4.90;2.80;;;20.20;44.40;;;;;;4971557;28;20030;-74
2022/03/05 01:32:03;;;;;;;3.90;2.53;;;20.30;44.40;;;;;;4972400;28;20054;-75
2022/03/05 01:34:29;;;;;;;4.72;2.90;;;20.20;44.30;;;;;;4970848;28;20062;-74
2022/03/05 01:36:55;;;;;;;3.83;2.45;;;20.20;44.40;;;;;;4971045;28;20059;-74
2022/03/05 01:39:20;;;;;;;4.07;2.30;;;20.20;44.40;;;;;;4971613;28;20484;-74
2022/03/05 01:41:48;;;;;;;3.80;2.50;;;20.20;44.40;;;;;;4971899;28;20042;-74
2022/03/05 01:44:14;;;;;;;5.03;2.72;;;20.20;44.30;;;;;;4955134;28;20141;-74
2022/03/05 01:46:40;;;;;;;4.97;2.67;;;20.20;44.40;;;;;;4970984;28;20539;-74
2022/03/05 01:49:11;;;;;;;5.18;2.58;;;20.20;44.40;;;;;;4972115;28;20031;-74
2022/03/05 01:51:38;;;;;;;4.63;2.75;;;20.20;44.40;;;;;;4971441;28;20030;-74
2022/03/05 01:54:04;;;;;;;4.10;2.60;;;20.20;44.40;;;;;;4970897;28;20027;-74
2022/03/05 01:56:30;;;;;;;5.43;2.90;;;20.20;44.40;;;;;;4970707;28;20400;-74
2022/03/05 01:58:57;;;;;;;4.40;2.65;;;20.20;44.40;;;;;;4972065;28;20452;-74
2022/03/05 02:01:25;;;;;;;4.18;2.38;;;20.20;44.40;;;;;;4971394;28;20038;-75
2022/03/05 02:03:52;;;;;;;3.40;2.30;;;20.20;44.40;;;;;;4970700;28;20488;-74
2022/03/05 02:06:19;;;;;;;3.08;2.20;;;20.20;44.30;;;;;;4970700;28;20093;-74
2022/03/05 02:08:44;;;;;;;4.85;2.90;;;20.20;44.50;;;;;;4975433;28;20038;-74
2022/03/05 02:11:11;;;;;;;3.78;2.50;;;20.20;44.40;;;;;;4974898;28;20030;-74
2022/03/05 02:13:37;;;;;;;5.32;2.80;;;20.20;44.40;;;;;;4958728;28;20034;-75
2022/03/05 02:16:04;;;;;;;5.20;2.47;;;20.20;44.40;;;;;;4974139;28;20139;-74
2022/03/05 02:18:29;;;;;;;4.20;2.55;;;20.20;44.40;;;;;;4974163;28;20492;-75
2022/03/05 02:20:55;;;;;;;3.72;2.45;;;20.20;44.30;;;;;;4973074;28;20045;-74
2022/03/05 02:23:22;;;;;;;4.15;2.47;;;20.20;44.40;;;;;;4974061;28;20217;-74
2022/03/05 02:26:05;;;;;;;5.10;2.63;;;20.20;44.30;;;;;;4975206;28;20073;-74
2022/03/05 02:28:35;;;;;;;4.43;2.70;;;20.20;44.30;;;;;;4975184;28;20027;-74
2022/03/05 02:31:02;;;;;;;4.57;2.58;;;20.20;44.30;;;;;;4974234;28;20031;-75
2022/03/05 02:33:28;;;;;;;5.60;2.85;;;20.20;44.30;;;;;;4974131;28;20035;-74
2022/03/05 02:35:54;;;;;;;3.97;2.30;;;20.20;44.20;;;;;;4974976;28;20052;-75
2022/03/05 02:38:22;;;;;;;3.50;2.33;;;20.30;44.10;;;;;;4974081;28;20484;-74
2022/03/05 02:40:49;;;;;;;3.85;2.50;;;20.20;44.30;;;;;;4972935;28;20034;-74
2022/03/05 02:43:15;;;;;;;3.47;2.30;;;20.20;44.30;;;;;;4975067;28;20586;-74
2022/03/05 02:45:42;;;;;;;2.97;2.17;;;20.20;44.30;;;;;;4973650;28;20038;-74
2022/03/05 02:48:14;;;;;;;4.43;2.50;;;20.20;44.30;;;;;;4973863;28;20447;-74
2022/03/05 02:50:42;;;;;;;4.03;2.50;;;20.20;44.40;;;;;;4972797;28;20069;-74
2022/03/05 02:53:08;;;;;;;4.90;2.50;;;20.20;44.30;;;;;;4973736;28;20045;-75
2022/03/05 02:55:35;;;;;;;3.35;2.35;;;20.20;44.20;;;;;;4973509;28;20093;-75
2022/03/05 02:58:02;;;;;;;5.40;2.60;;;20.20;44.40;;;;;;4973459;28;20591;-75
2022/03/05 03:00:28;;;;;;;4.13;2.28;;;20.20;44.50;;;;;;4972880;28;20065;-74
2022/03/05 03:02:53;;;;;;;3.90;2.40;;;20.20;44.50;;;;;;4973697;28;20031;-74
2022/03/05 03:05:21;;;;;;;3.80;2.35;;;20.20;44.40;;;;;;4973451;28;20054;-74
2022/03/05 03:07:47;;;;;;;4.05;2.40;;;20.20;44.40;;;;;;4973350;28;20403;-74
2022/03/05 03:10:14;;;;;;;3.78;2.45;;;20.10;44.40;;;;;;4973922;28;20424;-74
2022/03/05 03:12:39;;;;;;;4.15;2.50;;;20.20;44.40;;;;;;4974066;28;20391;-74
2022/03/05 03:15:07;;;;;;;4.55;2.65;;;20.20;44.40;;;;;;4973234;28;20026;-75
2022/03/05 03:17:48;;;;;;;3.08;2.28;;;20.20;44.30;;;;;;4974014;28;20484;-74
2022/03/05 03:20:22;;;;;;;4.03;2.30;;;20.20;44.40;;;;;;4972273;28;20031;-75
2022/03/05 03:22:48;;;;;;;3.75;2.40;;;20.20;44.40;;;;;;4973162;28;20066;-74
2022/03/05 03:25:14;;;;;;;3.83;2.40;;;20.20;44.40;;;;;;4974252;28;20178;-74
2022/03/05 03:27:40;;;;;;;4.80;2.63;;;20.20;44.40;;;;;;4956919;28;20066;-74
2022/03/05 03:30:08;;;;;;;3.78;2.55;;;20.10;44.30;;;;;;4940223;28;20026;-74
2022/03/05 03:32:34;;;;;;;3.75;2.55;;;20.10;44.40;;;;;;4972860;28;20114;-74
2022/03/05 03:34:59;;;;;;;3.22;2.25;;;20.20;44.40;;;;;;4974337;28;20038;-74
2022/03/05 03:37:29;;;;;;;3.17;2.28;;;20.10;44.40;;;;;;4973814;28;20034;-75
2022/03/05 03:39:59;;;;;;;4.25;2.50;;;20.20;44.50;;;;;;4971885;28;20038;-74
2022/03/05 03:42:26;;;;;;;4.00;2.60;;;20.10;44.40;;;;;;4973799;28;20442;-74
2022/03/05 03:44:53;;;;;;;4.60;2.83;;;20.10;44.40;;;;;;4956759;28;20061;-74
2022/03/05 03:47:19;;;;;;;3.72;2.38;;;20.10;44.40;;;;;;4972635;28;20066;-74
2022/03/05 03:49:45;;;;;;;4.95;2.30;;;20.20;44.40;;;;;;4955823;28;20507;-74
2022/03/05 03:52:13;;;;;;;5.00;2.55;;;20.20;44.40;;;;;;4972387;28;20040;-74
2022/03/05 03:54:43;;;;;;;3.67;2.30;;;20.20;44.40;;;;;;4973703;28;20031;-74
2022/03/05 03:57:08;;;;;;;;;;;20.20;44.30;;;;;;4973822;28;20034;-74
2022/03/05 03:59:34;;;;;;;3.85;2.58;;;20.20;44.30;;;;;;4971572;28;19910;-74
2022/03/05 04:02:02;;;;;;;4.18;2.15;;;20.20;44.40;;;;;;4972027;28;20403;-75
2022/03/05 04:04:29;;;;;;;3.50;2.30;;;20.10;44.40;;;;;;4973554;28;20578;-74
2022/03/05 04:09:39;;;;;;;4.50;2.28;;;20.20;44.40;;;;;;4971452;28;20117;-74
2022/03/05 04:12:05;;;;;;;4.30;2.40;;;20.10;44.40;;;;;;4973328;28;20544;-74
2022/03/05 04:14:31;;;;;;;4.78;2.47;;;20.10;45.00;;;;;;4956188;28;20061;-74
2022/03/05 04:16:57;;;;;;;4.72;2.60;;;20.20;44.40;;;;;;4971864;28;20026;-74
2022/03/05 04:19:23;;;;;;;3.72;2.25;;;20.10;44.30;;;;;;4971222;28;20443;-74
2022/03/05 04:21:48;;;;;;;4.18;2.40;;;20.20;44.40;;;;;;4972923;28;20030;-74
2022/03/05 04:24:14;;;;;;;4.45;2.53;;;20.10;44.40;;;;;;4971907;28;20110;-74
2022/03/05 04:26:40;;;;;;;5.38;2.30;;;20.10;44.30;;;;;;4973072;28;20118;-74
2022/03/05 04:29:05;;;;;;;4.78;2.35;;;20.10;44.30;;;;;;4973065;28;20052;-74
2022/03/05 04:31:31;;;;;;;3.30;2.25;;;20.10;44.30;;;;;;4954724;28;20031;-74
2022/03/05 04:33:57;;;;;;;4.20;2.55;;;20.10;44.40;;;;;;4972880;28;20372;-74
2022/03/05 04:36:24;;;;;;;3.83;2.42;;;20.10;44.40;;;;;;4971523;28;20085;-74
2022/03/05 04:38:50;;;;;;;3.65;2.30;;;20.10;44.30;;;;;;4972961;28;20035;-74
2022/03/05 04:41:15;;;;;;;4.10;2.65;;;20.10;44.30;;;;;;4970756;28;20391;-74
2022/03/05 04:43:41;;;;;;;2.83;2.20;;;20.10;44.40;;;;;;4971567;28;20037;-74
2022/03/05 04:46:07;;;;;;;3.85;2.45;;;20.10;44.30;;;;;;4971590;28;20033;-75
2022/03/05 04:48:32;;;;;;;5.07;2.35;;;20.10;44.40;;;;;;4971643;28;20073;-74
2022/03/05 04:50:58;;;;;;;4.07;2.42;;;20.10;44.40;;;;;;4971973;28;20031;-74
2022/03/05 04:53:24;;;;;;;4.38;2.60;;;20.10;44.40;;;;;;4971743;28;20031;-74
2022/03/05 04:55:50;;;;;;;3.10;2.20;;;20.10;44.40;;;;;;4972574;28;20027;-74
2022/03/05 04:58:17;;;;;;;4.05;2.38;;;20.10;44.40;;;;;;4972642;28;20037;-74
2022/03/05 05:00:42;;;;;;;4.30;2.50;;;20.10;44.30;;;;;;4971764;28;20094;-74
2022/03/05 05:03:08;;;;;;;4.00;2.30;;;20.10;44.30;;;;;;4972358;28;20031;-74
2022/03/05 05:05:34;;;;;;;3.53;2.35;;;20.10;44.40;;;;;;4971258;28;20093;-75
2022/03/05 05:08:00;;;;;;;4.38;2.70;;;20.10;44.10;;;;;;4972476;28;20039;-74
2022/03/05 05:10:26;;;;;;;6.38;2.70;;;20.20;44.20;;;;;;4970576;28;20026;-74
2022/03/05 05:12:51;;;;;;;4.95;2.75;;;20.10;44.40;;;;;;4972752;28;20031;-74
2022/03/05 05:15:17;;;;;;;4.30;2.47;;;20.10;44.30;;;;;;4971192;28;20030;-74
2022/03/05 05:17:43;;;;;;;4.47;2.50;;;20.10;44.30;;;;;;4970877;28;20034;-74
2022/03/05 05:20:09;;;;;;;4.60;2.47;;;20.10;44.40;;;;;;4970600;28;20027;-74
2022/03/05 05:22:35;;;;;;;3.95;2.30;;;20.10;44.40;;;;;;4971061;28;20546;-75
2022/03/05 05:25:03;;;;;;;4.72;2.90;;;20.10;44.30;;;;;;4972512;28;20391;-74
2022/03/05 05:27:29;;;;;;;4.28;2.80;;;20.10;44.30;;;;;;4971180;28;20054;-74
2022/03/05 05:29:55;;;;;;;4.00;2.03;;;20.10;44.30;;;;;;4971627;28;20065;-74
2022/03/05 05:32:20;;;;;;;4.05;2.53;;;20.10;44.30;;;;;;4971063;28;20090;-75
2022/03/05 05:34:46;;;;;;;3.70;2.50;;;20.10;44.30;;;;;;4971404;28;20030;-74
2022/03/05 05:37:12;;;;;;;4.28;2.63;;;20.10;44.40;;;;;;4970883;28;20035;-74
2022/03/05 05:39:38;;;;;;;4.25;2.53;;;20.10;44.40;;;;;;4971543;28;20027;-75
2022/03/05 05:42:04;;;;;;;4.25;2.80;;;20.10;44.40;;;;;;4974709;28;20031;-75
2022/03/05 05:44:30;;;;;;;5.03;2.58;;;20.10;44.40;;;;;;4974703;28;20106;-74
2022/03/05 05:46:56;;;;;;;5.10;2.70;;;20.10;44.40;;;;;;4976222;28;20259;-75
2022/03/05 05:49:22;;;;;;;4.82;2.80;;;20.10;44.30;;;;;;4975443;28;20030;-74
2022/03/05 05:51:48;;;;;;;3.85;2.60;;;20.10;44.40;;;;;;4975657;28;20495;-75
2022/03/05 05:54:13;;;;;;;4.28;2.60;;;20.10;44.30;;;;;;4976102;28;20490;-75
2022/03/05 05:56:39;;;;;;;4.72;2.80;;;20.10;45.00;;;;;;4974666;28;20043;-74
2022/03/05 05:59:05;;;;;;;4.93;2.58;;;20.10;44.30;;;;;;4974593;28;20519;-74
2022/03/05 06:01:31;;;;;;;4.60;2.70;;;20.10;44.30;;;;;;4957849;28;20038;-75
2022/03/05 06:03:57;;;;;;;4.45;2.47;;;20.10;44.40;;;;;;4974411;28;20392;-75
2022/03/05 06:06:23;;;;;;;4.53;2.65;;;20.10;44.30;;;;;;4974448;28;20031;-75
2022/03/05 06:08:49;;;;;;;5.22;2.92;;;20.10;44.40;;;;;;4974421;28;20038;-75
2022/03/05 06:11:15;;;;;;;4.85;2.85;;;20.10;44.30;;;;;;4973682;28;20109;-74
2022/03/05 06:13:41;;;;;;;5.07;2.70;;;20.10;44.20;;;;;;4975568;28;20031;-75
2022/03/05 06:16:08;;;;;;;4.10;2.72;;;20.10;44.30;;;;;;4975437;28;20081;-75
2022/03/05 06:18:34;;;;;;;4.03;2.60;;;20.10;44.30;;;;;;4975496;28;20487;-75
2022/03/05 06:21:00;;;;;;;3.13;2.35;;;20.10;44.30;;;;;;4973419;28;20031;-75
2022/03/05 06:23:26;;;;;;;3.50;2.40;;;20.10;44.30;;;;;;4975573;28;20027;-75
2022/03/05 06:25:52;;;;;;;4.15;2.50;;;20.10;44.30;;;;;;4974331;28;20127;-75
2022/03/05 06:28:19;;;;;;;4.70;2.70;;;20.10;44.30;;;;;;4975352;28;20089;-75
2022/03/05 06:30:45;;;;;;;4.63;2.90;;;20.10;44.30;;;;;;4957435;28;20506;-75
2022/03/05 06:33:10;;;;;;;4.28;2.72;;;20.10;44.20;;;;;;4975392;28;20030;-75
2022/03/05 06:35:36;;;;;;;5.55;3.05;;;20.10;44.40;;;;;;4975194;28;20369;-75
2022/03/05 06:38:02;;;;;;;4.25;2.40;;;20.10;44.30;;;;;;4974971;28;20113;-75
2022/03/05 06:40:28;;;;;;;3.75;2.60;;;20.10;44.40;;;;;;4972845;28;20026;-75
2022/03/05 06:42:55;;;;;;;4.18;2.47;;;20.10;44.40;;;;;;4973554;28;20062;-75
2022/03/05 06:45:21;;;;;;;4.65;3.00;;;20.10;44.40;;;;;;4973905;28;20034;-75
2022/03/05 06:47:47;;;;;;;4.47;2.78;;;20.10;44.40;;;;;;4974835;28;20029;-75
2022/03/05 06:50:13;;;;;;;3.70;2.70;;;20.10;44.40;;;;;;4972997;28;20543;-75
2022/03/05 06:52:39;;;;;;;5.75;2.53;;;20.10;44.30;;;;;;4974064;28;20114;-75
2022/03/05 06:55:06;;;;;;;4.57;3.08;;;20.10;44.40;;;;;;4974847;28;20042;-74
2022/03/05 06:57:32;;;;;;;4.65;2.70;;;20.10;44.30;;;;;;4973212;28;20512;-75
2022/03/05 06:59:58;;;;;;;5.57;2.72;;;20.10;44.40;;;;;;4972529;28;20105;-76
2022/03/05 07:02:23;;;;;;;3.63;2.60;;;20.10;44.30;;;;;;4973407;28;20058;-77
2022/03/05 07:04:49;;;;;;;4.68;3.13;;;20.10;44.30;;;;;;4974654;28;20088;-77
2022/03/05 07:07:16;;;;;;;4.43;2.83;;;20.10;44.30;;;;;;4974537;28;20026;-76
2022/03/05 07:09:42;;;;;;;4.32;2.63;;;20.10;44.30;;;;;;4972568;28;20035;-76
2022/03/05 07:12:09;;;;;;;4.75;2.90;;;20.20;44.30;;;;;;4973415;28;20365;-77
2022/03/05 07:14:36;;;;;;;4.85;2.75;;;20.20;44.40;;;;;;4974295;28;20045;-76
2022/03/05 07:17:02;;;;;;;5.63;3.03;;;20.10;44.20;;;;;;4973063;28;20142;-76
2022/03/05 07:19:28;;;;;;;4.97;2.92;;;20.10;44.30;;;;;;4972768;28;20093;-76
2022/03/05 07:21:53;;;;;;;4.88;2.80;;;20.20;44.40;;;;;;4957326;28;20031;-76
2022/03/05 07:24:19;;;;;;;4.05;2.83;;;20.10;44.30;;;;;;4973554;28;20027;-77
2022/03/05 07:26:45;;;;;;;4.65;2.70;;;20.20;44.30;;;;;;4972939;28;20101;-77
2022/03/05 07:29:11;;;;;;;4.75;2.83;;;20.20;44.30;;;;;;4974499;28;20480;-77
2022/03/05 07:31:38;;;;;;;4.47;2.83;;;20.20;44.40;;;;;;4972154;28;20030;-77
2022/03/05 07:34:04;;;;;;;4.18;2.92;;;20.20;44.10;;;;;;4974199;28;20038;-77
2022/03/05 07:36:30;;;;;;;4.75;2.90;;;20.20;44.20;;;;;;4972928;28;20027;-77
2022/03/05 07:38:56;;;;;;;5.05;2.63;;;20.20;44.20;;;;;;4973911;28;20027;-76
2022/03/05 07:41:22;;;;;;;4.60;2.90;;;20.20;44.00;;;;;;4973145;28;20029;-76
2022/03/05 07:43:48;;;;;;;4.82;2.70;;;20.30;44.00;;;;;;4956659;28;20062;-76
2022/03/05 07:46:13;;;;;;;6.13;3.17;;;20.20;44.00;;;;;;4973804;28;20417;-77
2022/03/05 07:48:39;;;;;;;4.13;2.65;;;20.30;44.00;;;;;;4973935;28;20102;-76
2022/03/05 07:51:05;;;;;;;5.35;2.90;;;20.20;44.00;;;;;;4972007;28;20026;-76
2022/03/05 07:53:34;;;;;;;6.57;3.22;;;20.30;44.00;;;;;;4973782;28;20027;-76
2022/03/05 07:55:59;;;;;;;6.35;3.47;;;20.20;44.00;;;;;;4972051;28;20033;-76
2022/03/05 07:58:28;;;;;;;5.38;3.30;;;20.30;44.00;;;;;;4973669;28;20027;-76
2022/03/05 08:00:54;;;;;;;6.10;3.33;;;20.30;44.10;;;;;;4972810;28;20035;-76
2022/03/05 08:03:19;;;;;;;6.13;3.17;;;20.30;44.10;;;;;;4973439;28;20445;-76
2022/03/05 08:05:45;;;;;;;4.63;2.85;;;20.30;44.10;;;;;;4972441;28;20029;-76
2022/03/05 08:08:11;;;;;;;4.15;3.10;;;20.30;44.10;;;;;;4972468;28;20034;-76
2022/03/05 08:10:37;;;;;;;4.07;2.90;;;20.30;44.00;;;;;;4971736;28;20119;-76
2022/03/05 08:13:03;;;;;;;5.75;3.38;;;20.30;43.80;;;;;;4971973;28;20034;-75
2022/03/05 08:15:28;;;;;;;4.75;3.15;;;20.30;43.80;;;;;;4972223;28;20062;-76
2022/03/05 08:17:56;;;;;;;5.97;3.15;;;20.30;44.00;;;;;;4973443;28;20030;-76
2022/03/05 08:20:25;;;;;;;4.32;3.00;;;20.40;44.20;;;;;;4972422;28;20597;-76
2022/03/05 08:22:51;;;;;;;4.75;2.90;;;20.40;44.40;;;;;;4971994;28;20033;-76
2022/03/05 08:25:17;;;;;;;4.75;3.05;;;20.40;44.50;;;;;;4973141;28;20023;-76
2022/03/05 08:27:42;;;;;;;5.07;3.45;;;20.40;44.60;;;;;;4972369;28;20146;-77
2022/03/05 08:30:09;;;;;;;5.82;3.20;;;20.40;44.70;;;;;;4970994;28;20031;-76
2022/03/05 08:32:35;;;;;;;4.18;3.05;;;20.40;44.70;;;;;;4973282;28;20085;-76
2022/03/05 08:35:01;;;;;;;5.35;3.22;;;20.40;44.80;;;;;;4971690;28;20027;-76
2022/03/05 08:37:27;;;;;;;4.57;2.95;;;20.50;45.00;;;;;;4973113;28;20034;-76
2022/03/05 08:39:54;;;;;;;5.20;3.10;;;20.50;45.00;;;;;;4972138;28;20034;-76
2022/03/05 08:42:20;;;;;;;5.50;3.15;;;20.50;45.10;;;;;;4971661;28;20027;-76
2022/03/05 08:44:46;;;;;;;6.70;3.33;;;20.50;45.10;;;;;;4971719;28;20049;-76
2022/03/05 08:47:12;;;;;;;5.47;3.05;;;20.50;45.20;;;;;;4972941;28;20027;-76
2022/03/05 08:49:38;;;;;;;4.47;3.03;;;20.50;45.20;;;;;;4971296;28;20046;-76
2022/03/05 08:52:04;;;;;;;5.32;3.10;;;20.50;45.20;;;;;;4971976;28;20074;-76
2022/03/05 08:54:30;;;;;;;5.10;2.95;;;20.50;45.20;;;;;;4973049;28;20319;-76
2022/03/05 08:56:56;;;;;;;4.90;2.92;;;20.50;45.30;;;;;;5000729;23;20050;-75
2022/03/05 08:59:21;;;;;;;4.53;2.88;;;20.50;45.00;;;;;;5010095;28;20473;-73
2022/03/05 09:01:48;;;;;;;6.70;3.45;;;20.50;45.20;;;;;;5011026;28;20088;-75
2022/03/05 09:04:14;;;;;;;5.75;3.15;;;20.50;45.20;;;;;;5010690;28;20045;-75
2022/03/05 09:06:40;;;;;;;4.97;3.20;;;20.50;45.30;;;;;;5010311;28;20042;-75
2022/03/05 09:09:06;;;;;;;4.90;3.03;;;20.60;45.50;;;;;;5010766;28;20022;-75
2022/03/05 09:11:32;;;;;;;5.15;2.95;;;20.60;45.50;;;;;;5011848;28;20076;-75
2022/03/05 09:13:58;;;;;;;6.72;3.15;;;20.60;45.50;;;;;;5011780;28;20026;-76
2022/03/05 09:16:24;;;;;;;4.80;3.22;;;20.60;45.40;;;;;;5011817;28;20467;-75
2022/03/05 09:18:50;;;;;;;4.55;3.05;;;20.60;45.50;;;;;;5011676;28;20030;-75
2022/03/05 09:21:16;;;;;;;4.97;3.30;;;20.60;45.40;;;;;;5010703;28;20521;-75
2022/03/05 09:23:42;;;;;;;6.10;3.53;;;20.60;45.40;;;;;;5010065;28;20096;-75
2022/03/05 09:26:07;;;;;;;5.20;3.40;;;20.60;45.40;;;;;;5009537;28;20167;-75
2022/03/05 09:28:33;;;;;;;6.50;3.42;;;20.60;45.50;;;;;;4993824;28;20065;-74
2022/03/05 09:30:58;;;;;;;6.15;3.40;;;20.60;45.40;;;;;;5010655;28;20030;-75
2022/03/05 09:33:25;;;;;;;5.53;3.38;;;20.70;45.50;;;;;;5011294;28;20510;-74
2022/03/05 09:35:52;;;;;;;6.22;3.67;;;20.60;45.40;;;;;;5011188;28;20475;-75
2022/03/05 09:38:18;;;;;;;5.45;3.33;;;20.60;45.40;;;;;;5011326;28;20060;-75
2022/03/05 09:40:44;;;;;;;4.95;3.10;;;20.70;45.50;;;;;;5009190;28;20026;-75
2022/03/05 09:43:10;;;;;;;6.78;3.35;;;20.70;45.40;;;;;;4993680;28;20373;-75
2022/03/05 09:45:38;;;;;;;6.45;3.70;;;20.70;45.50;;;;;;5011040;28;20064;-75
2022/03/05 09:48:04;;;;;;;5.43;3.25;;;20.70;45.50;;;;;;5010795;28;20022;-74
2022/03/05 09:50:32;;;;;;;5.72;3.30;;;20.70;45.40;;;;;;5008958;28;20026;-75
2022/03/05 09:52:59;;;;;;;5.72;3.55;;;20.70;45.30;;;;;;5011145;28;20030;-75
2022/03/05 09:55:25;;;;;;;5.82;3.47;;;20.70;45.40;;;;;;5010990;28;20034;-75
2022/03/05 09:57:51;;;;;;;6.32;3.60;;;20.70;45.30;;;;;;5010873;28;20037;-75
2022/03/05 10:00:17;;;;;;;5.93;3.60;;;20.70;45.30;;;;;;5010191;28;20111;-74
2022/03/05 10:02:47;;;;;;;6.97;3.92;;;20.70;45.20;;;;;;5010815;28;20061;-74
2022/03/05 10:05:26;;;;;;;6.40;3.80;;;20.60;45.10;;;;;;5011461;28;20022;-75
2022/03/05 10:07:58;;;;;;;5.32;3.53;;;20.60;45.10;;;;;;5009785;28;20025;-74
2022/03/05 10:10:24;;;;;;;5.57;3.20;;;20.60;45.10;;;;;;5008883;28;20037;-73
2022/03/05 10:12:50;;;;;;;6.22;3.47;;;20.60;45.20;;;;;;5011011;28;20493;-74
2022/03/05 10:15:23;;;;;;;5.97;3.70;;;20.60;45.70;;;;;;5010672;28;20077;-74
2022/03/05 10:17:53;;;;;;;6.18;3.63;;;20.60;45.10;;;;;;5010647;28;20040;-74
2022/03/05 10:20:24;;;;;;;5.22;3.35;;;20.70;45.20;;;;;;5008887;28;20121;-74
2022/03/05 10:23:01;;;;;;;5.70;3.33;;;20.60;45.20;;;;;;4993319;28;20038;-74
2022/03/05 10:25:40;;;;;;;5.20;3.50;;;20.60;45.20;;;;;;5009283;28;20474;-74
2022/03/05 10:28:07;;;;;;;5.87;3.40;;;20.60;45.20;;;;;;5010513;28;20026;-75
2022/03/05 10:30:45;;;;;;;4.63;3.13;;;20.60;45.30;;;;;;5013504;28;20022;-76
2022/03/05 10:33:29;;;;;;;5.40;3.33;;;20.60;45.30;;;;;;5014068;28;20080;-74
2022/03/05 10:35:57;;;;;;;6.03;3.33;;;20.70;45.40;;;;;;5012725;28;20140;-74
2022/03/05 10:38:25;;;;;;;7.05;4.00;;;20.60;45.40;;;;;;5014053;28;20091;-75
2022/03/05 10:40:56;;;;;;;5.15;3.35;;;20.60;45.40;;;;;;4996062;28;20026;-75
2022/03/05 10:43:23;;;;;;;6.50;4.00;;;20.50;45.30;;;;;;5012638;28;20430;-75
2022/03/05 10:45:53;;;;;;;6.88;3.60;;;20.60;45.20;;;;;;5012673;28;20093;-74
2022/03/05 10:48:24;;;;;;;6.15;3.40;;;20.60;45.20;;;;;;5012798;28;20030;-75
2022/03/05 10:51:04;;;;;;;6.00;3.60;;;20.60;45.10;;;;;;4995530;28;20033;-75
2022/03/05 10:53:45;;;;;;;5.60;3.50;;;20.60;45.10;;;;;;5012520;28;20505;-75
2022/03/05 10:56:26;;;;;;;6.80;3.80;;;20.60;45.00;;;;;;5012358;28;20084;-75
2022/03/05 10:59:12;;;;;;;6.85;3.90;;;20.60;45.00;;;;;;5012556;28;20037;-75
2022/03/05 11:01:42;;;;;;;5.85;3.58;;;20.60;44.70;;;;;;5012977;28;20029;-75
2022/03/05 11:04:10;;;;;;;7.03;3.78;;;20.60;44.80;;;;;;5013663;28;20386;-75
2022/03/05 11:06:38;;;;;;;6.55;3.35;;;20.60;44.70;;;;;;5013446;28;20029;-75
2022/03/05 11:09:06;;;;;;;5.82;3.33;;;20.60;44.60;;;;;;5011861;28;20022;-75
2022/03/05 11:11:34;;;;;;;5.70;3.55;;;20.60;44.60;;;;;;5012405;28;20045;-74
2022/03/05 11:14:00;;;;;;;7.07;4.00;;;20.60;44.60;;;;;;5011947;28;20053;-74
2022/03/05 11:16:26;;;;;;;6.07;3.42;;;20.60;44.70;;;;;;5012056;28;20038;-75
2022/03/05 11:18:54;;;;;;;5.50;3.53;;;20.60;44.70;;;;;;4996063;28;20119;-74
2022/03/05 11:21:19;;;;;;;6.10;3.72;;;20.60;44.70;;;;;;5012650;28;20065;-74
2022/03/05 11:23:45;;;;;;;6.07;3.70;;;20.50;44.70;;;;;;5011731;28;20072;-74
2022/03/05 11:26:13;;;;;;;6.43;3.58;;;20.50;44.80;;;;;;5012114;28;20018;-74
2022/03/05 11:28:47;;;;;;;6.45;3.65;;;20.50;44.70;;;;;;5012023;28;20108;-74
2022/03/05 11:31:18;;;;;;;5.75;3.40;;;20.50;44.80;;;;;;5012219;28;20048;-74
2022/03/05 11:33:45;;;;;;;5.78;3.75;;;20.50;44.80;;;;;;4995534;28;20474;-74
2022/03/05 11:36:32;;;;;;;6.50;3.53;;;20.50;44.80;;;;;;5012871;28;20030;-75
2022/03/05 11:39:07;;;;;;;5.15;3.67;;;20.50;44.80;;;;;;5011616;28;20061;-75
2022/03/05 11:41:47;;;;;;;5.78;3.70;;;20.50;44.80;;;;;;5011003;28;20096;-74
2022/03/05 11:44:14;;;;;;;5.55;3.58;;;20.50;44.90;;;;;;5011699;28;20379;-74
2022/03/05 11:46:40;;;;;;;6.18;3.42;;;20.50;44.80;;;;;;5012770;28;20084;-75
2022/03/05 11:49:09;;;;;;;6.75;3.80;;;20.50;44.80;;;;;;5012824;28;20034;-75
2022/03/05 11:51:54;;;;;;;6.47;4.05;;;20.40;44.80;;;;;;5010632;28;20479;-76
2022/03/05 11:54:20;;;;;;;6.35;3.83;;;20.40;44.90;;;;;;5012731;28;20036;-76
2022/03/05 11:57:04;;;;;;;6.43;3.55;;;20.50;44.80;;;;;;5011103;28;20062;-75
2022/03/05 11:59:35;;;;;;;6.05;3.60;;;20.40;44.80;;;;;;5011936;28;20386;-76
2022/03/05 12:02:01;;;;;;;6.07;3.67;;;20.50;44.80;;;;;;5012583;28;20030;-76
2022/03/05 12:04:28;;;;;;;5.47;3.40;;;20.50;44.70;;;;;;5011896;28;20117;-75
2022/03/05 12:07:04;;;;;;;6.05;3.80;;;20.50;44.70;;;;;;5012455;28;20490;-76
2022/03/05 12:09:40;;;;;;;5.15;3.30;;;20.50;44.70;;;;;;5011577;28;20106;-76
2022/03/05 12:12:14;;;;;;;5.85;3.40;;;20.50;44.80;;;;;;5011260;28;20425;-76
2022/03/05 12:14:58;;;;;;;5.97;3.50;;;20.50;44.70;;;;;;5011261;28;20038;-76
2022/03/05 12:17:25;;;;;;;6.82;3.70;;;20.50;44.70;;;;;;5010950;28;20066;-76
2022/03/05 12:19:51;;;;;;;4.63;3.30;;;20.50;44.70;;;;;;5010202;28;20121;-76
2022/03/05 12:22:17;;;;;;;6.45;3.85;;;20.50;44.70;;;;;;5012505;28;20116;-76
2022/03/05 12:24:43;;;;;;;6.82;3.63;;;20.50;44.70;;;;;;5012143;28;20105;-76
2022/03/05 12:27:19;;;;;;;5.38;3.40;;;20.50;44.70;;;;;;5011145;28;20122;-76
2022/03/05 12:29:50;;;;;;;5.72;3.60;;;20.50;44.60;;;;;;5010071;28;20112;-76
2022/03/05 12:32:17;;;;;;;5.47;3.40;;;20.50;44.70;;;;;;5011054;28;20030;-75
2022/03/05 12:34:43;;;;;;;4.78;3.50;;;20.50;44.70;;;;;;5010638;28;20026;-75
2022/03/05 12:37:09;;;;;;;5.70;3.65;;;20.50;44.70;;;;;;5011862;28;20030;-75
2022/03/05 12:39:44;;;;;;;5.85;3.60;;;20.50;44.60;;;;;;5011159;28;20129;-76
2022/03/05 12:42:11;;;;;;;6.53;3.75;;;20.50;44.80;;;;;;5010888;28;20129;-76
2022/03/05 12:44:39;;;;;;;5.55;3.42;;;20.50;44.60;;;;;;5010493;28;20379;-76
2022/03/05 12:47:05;;;;;;;5.75;3.70;;;20.50;44.70;;;;;;5011768;28;20097;-76
2022/03/05 12:49:31;;;;;;;7.28;3.55;;;20.50;44.70;;;;;;5010206;28;20025;-75
2022/03/05 12:51:57;;;;;;;6.47;3.83;;;20.50;44.70;;;;;;5011258;28;20033;-75